sensor_id;sensor_type;location;lat;lon;timestamp;P1;durP1;ratioP1;P2;durP2;ratioP2
15476;SDS011;7840;42.702;23.296;2023-06-14T00:01:46;8.38;;;6.80;;
15476;SDS011;7840;42.702;23.296;2023-06-14T00:04:15;6.90;;;5.90;;
15476;SDS011;7840;42.702;23.296;2023-06-14T00:06:44;6.35;;;5.75;;
15476;SDS011;7840;42.702;23.296;2023-06-14T00:09:12;7.97;;;6.95;;
15476;SDS011;7840;42.702;23.296;2023-06-14T00:11:39;8.43;;;5.97;;
15476;SDS011;7840;42.702;23.296;2023-06-14T00:14:06;6.47;;;5.65;;
15476;SDS011;7840;42.702;23.296;2023-06-14T00:16:34;7.53;;;6.72;;
15476;SDS011;7840;42.702;23.296;2023-06-14T00:19:03;7.65;;;6.60;;
15476;SDS011;7840;42.702;23.296;2023-06-14T00:21:32;7.25;;;6.57;;
15476;SDS011;7840;42.702;23.296;2023-06-14T00:24:00;8.48;;;6.75;;
15476;SDS011;7840;42.702;23.296;2023-06-14T00:26:28;6.97;;;6.32;;
15476;SDS011;7840;42.702;23.296;2023-06-14T00:28:55;7.25;;;6.57;;
15476;SDS011;7840;42.702;23.296;2023-06-14T00:31:22;7.50;;;6.38;;
15476;SDS011;7840;42.702;23.296;2023-06-14T00:33:50;7.05;;;6.45;;
15476;SDS011;7840;42.702;23.296;2023-06-14T00:36:17;6.72;;;6.20;;
15476;SDS011;7840;42.702;23.296;2023-06-14T00:38:45;7.97;;;5.50;;
15476;SDS011;7840;42.702;23.296;2023-06-14T00:41:13;6.82;;;6.22;;
15476;SDS011;7840;42.702;23.296;2023-06-14T00:43:40;8.20;;;5.68;;
15476;SDS011;7840;42.702;23.296;2023-06-14T00:46:07;6.20;;;5.60;;
15476;SDS011;7840;42.702;23.296;2023-06-14T00:48:35;6.70;;;6.07;;
15476;SDS011;7840;42.702;23.296;2023-06-14T00:51:03;6.55;;;5.60;;
15476;SDS011;7840;42.702;23.296;2023-06-14T00:53:30;8.02;;;5.88;;
15476;SDS011;7840;42.702;23.296;2023-06-14T00:56:02;6.70;;;6.10;;
15476;SDS011;7840;42.702;23.296;2023-06-14T00:58:29;6.93;;;6.07;;
15476;SDS011;7840;42.702;23.296;2023-06-14T01:00:57;6.28;;;5.72;;
15476;SDS011;7840;42.702;23.296;2023-06-14T01:03:25;7.50;;;6.70;;
15476;SDS011;7840;42.702;23.296;2023-06-14T01:06:04;7.45;;;6.80;;
15476;SDS011;7840;42.702;23.296;2023-06-14T01:08:38;7.78;;;6.97;;
15476;SDS011;7840;42.702;23.296;2023-06-14T01:11:12;6.47;;;5.97;;
15476;SDS011;7840;42.702;23.296;2023-06-14T01:13:41;8.82;;;7.80;;
15476;SDS011;7840;42.702;23.296;2023-06-14T01:16:10;8.88;;;6.75;;
15476;SDS011;7840;42.702;23.296;2023-06-14T01:18:37;8.13;;;7.20;;
15476;SDS011;7840;42.702;23.296;2023-06-14T01:21:15;8.23;;;7.57;;
15476;SDS011;7840;42.702;23.296;2023-06-14T01:23:48;7.95;;;7.35;;
15476;SDS011;7840;42.702;23.296;2023-06-14T01:26:18;8.52;;;7.80;;
15476;SDS011;7840;42.702;23.296;2023-06-14T01:28:47;8.63;;;7.72;;
15476;SDS011;7840;42.702;23.296;2023-06-14T01:31:16;8.70;;;7.95;;
15476;SDS011;7840;42.702;23.296;2023-06-14T01:33:44;9.60;;;8.80;;
15476;SDS011;7840;42.702;23.296;2023-06-14T01:36:12;8.77;;;8.05;;
15476;SDS011;7840;42.702;23.296;2023-06-14T01:38:40;7.97;;;7.25;;
15476;SDS011;7840;42.702;23.296;2023-06-14T01:41:09;7.22;;;6.63;;
15476;SDS011;7840;42.702;23.296;2023-06-14T01:43:37;7.82;;;7.03;;
15476;SDS011;7840;42.702;23.296;2023-06-14T01:46:05;8.85;;;8.05;;
15476;SDS011;7840;42.702;23.296;2023-06-14T01:48:33;8.07;;;7.38;;
15476;SDS011;7840;42.702;23.296;2023-06-14T01:51:01;8.13;;;7.43;;
15476;SDS011;7840;42.702;23.296;2023-06-14T01:53:28;8.00;;;7.20;;
15476;SDS011;7840;42.702;23.296;2023-06-14T01:55:55;9.05;;;8.05;;
15476;SDS011;7840;42.702;23.296;2023-06-14T01:58:24;7.72;;;7.03;;
15476;SDS011;7840;42.702;23.296;2023-06-14T02:00:51;8.95;;;8.25;;
15476;SDS011;7840;42.702;23.296;2023-06-14T02:03:20;8.80;;;7.97;;
15476;SDS011;7840;42.702;23.296;2023-06-14T02:05:48;9.00;;;8.23;;
15476;SDS011;7840;42.702;23.296;2023-06-14T02:08:15;9.27;;;8.38;;
15476;SDS011;7840;42.702;23.296;2023-06-14T02:10:42;10.73;;;8.52;;
15476;SDS011;7840;42.702;23.296;2023-06-14T02:13:10;9.23;;;8.40;;
15476;SDS011;7840;42.702;23.296;2023-06-14T02:15:39;10.05;;;7.78;;
15476;SDS011;7840;42.702;23.296;2023-06-14T02:18:08;9.73;;;8.82;;
15476;SDS011;7840;42.702;23.296;2023-06-14T02:20:36;9.07;;;8.27;;
15476;SDS011;7840;42.702;23.296;2023-06-14T02:23:04;9.13;;;8.07;;
15476;SDS011;7840;42.702;23.296;2023-06-14T02:25:32;9.02;;;7.90;;
15476;SDS011;7840;42.702;23.296;2023-06-14T02:28:00;11.23;;;7.80;;
15476;SDS011;7840;42.702;23.296;2023-06-14T02:30:27;10.05;;;8.05;;
15476;SDS011;7840;42.702;23.296;2023-06-14T02:33:03;9.13;;;8.30;;
15476;SDS011;7840;42.702;23.296;2023-06-14T02:35:30;9.85;;;9.07;;
15476;SDS011;7840;42.702;23.296;2023-06-14T02:37:57;9.00;;;8.20;;
15476;SDS011;7840;42.702;23.296;2023-06-14T02:40:25;8.85;;;8.02;;
15476;SDS011;7840;42.702;23.296;2023-06-14T02:42:53;9.30;;;8.32;;
15476;SDS011;7840;42.702;23.296;2023-06-14T02:45:20;8.95;;;8.07;;
15476;SDS011;7840;42.702;23.296;2023-06-14T02:47:47;8.70;;;7.88;;
15476;SDS011;7840;42.702;23.296;2023-06-14T02:50:16;9.07;;;8.23;;
15476;SDS011;7840;42.702;23.296;2023-06-14T02:52:43;9.88;;;8.40;;
15476;SDS011;7840;42.702;23.296;2023-06-14T02:55:11;8.68;;;7.82;;
15476;SDS011;7840;42.702;23.296;2023-06-14T02:57:38;8.68;;;7.88;;
15476;SDS011;7840;42.702;23.296;2023-06-14T03:00:06;8.77;;;7.30;;
15476;SDS011;7840;42.702;23.296;2023-06-14T03:02:38;8.50;;;7.45;;
15476;SDS011;7840;42.702;23.296;2023-06-14T03:05:08;13.38;;;7.40;;
15476;SDS011;7840;42.702;23.296;2023-06-14T03:07:36;9.07;;;7.25;;
15476;SDS011;7840;42.702;23.296;2023-06-14T03:10:06;8.07;;;7.35;;
15476;SDS011;7840;42.702;23.296;2023-06-14T03:12:34;9.15;;;7.40;;
15476;SDS011;7840;42.702;23.296;2023-06-14T03:15:02;8.43;;;7.63;;
15476;SDS011;7840;42.702;23.296;2023-06-14T03:17:29;9.00;;;7.13;;
15476;SDS011;7840;42.702;23.296;2023-06-14T03:19:58;10.20;;;8.20;;
15476;SDS011;7840;42.702;23.296;2023-06-14T03:22:26;9.07;;;8.10;;
15476;SDS011;7840;42.702;23.296;2023-06-14T03:24:55;8.43;;;7.63;;
15476;SDS011;7840;42.702;23.296;2023-06-14T03:27:22;9.55;;;8.63;;
15476;SDS011;7840;42.702;23.296;2023-06-14T03:29:49;8.77;;;7.93;;
15476;SDS011;7840;42.702;23.296;2023-06-14T03:32:16;8.65;;;7.95;;
15476;SDS011;7840;42.702;23.296;2023-06-14T03:34:44;8.98;;;8.18;;
15476;SDS011;7840;42.702;23.296;2023-06-14T03:37:11;9.45;;;8.60;;
15476;SDS011;7840;42.702;23.296;2023-06-14T03:39:38;9.70;;;7.63;;
15476;SDS011;7840;42.702;23.296;2023-06-14T03:42:12;9.02;;;8.20;;
15476;SDS011;7840;42.702;23.296;2023-06-14T03:44:39;8.52;;;7.80;;
15476;SDS011;7840;42.702;23.296;2023-06-14T03:47:07;8.93;;;7.93;;
15476;SDS011;7840;42.702;23.296;2023-06-14T03:49:34;13.10;;;7.55;;
15476;SDS011;7840;42.702;23.296;2023-06-14T03:52:02;9.57;;;7.90;;
15476;SDS011;7840;42.702;23.296;2023-06-14T03:54:30;7.45;;;6.85;;
15476;SDS011;7840;42.702;23.296;2023-06-14T03:56:58;11.70;;;7.35;;
15476;SDS011;7840;42.702;23.296;2023-06-14T03:59:26;7.90;;;7.10;;
15476;SDS011;7840;42.702;23.296;2023-06-14T04:01:54;7.40;;;6.80;;
15476;SDS011;7840;42.702;23.296;2023-06-14T04:04:21;7.88;;;7.07;;
15476;SDS011;7840;42.702;23.296;2023-06-14T04:06:54;6.70;;;6.15;;
15476;SDS011;7840;42.702;23.296;2023-06-14T04:09:23;7.28;;;6.68;;
15476;SDS011;7840;42.702;23.296;2023-06-14T04:11:51;10.90;;;6.88;;
15476;SDS011;7840;42.702;23.296;2023-06-14T04:14:18;7.70;;;6.30;;
15476;SDS011;7840;42.702;23.296;2023-06-14T04:16:47;6.80;;;6.20;;
15476;SDS011;7840;42.702;23.296;2023-06-14T04:19:14;8.88;;;6.50;;
15476;SDS011;7840;42.702;23.296;2023-06-14T04:21:41;7.30;;;6.65;;
15476;SDS011;7840;42.702;23.296;2023-06-14T04:24:09;7.22;;;6.63;;
15476;SDS011;7840;42.702;23.296;2023-06-14T04:26:39;9.63;;;6.72;;
15476;SDS011;7840;42.702;23.296;2023-06-14T04:29:06;7.18;;;6.57;;
15476;SDS011;7840;42.702;23.296;2023-06-14T04:31:33;7.20;;;6.50;;
15476;SDS011;7840;42.702;23.296;2023-06-14T04:34:04;9.05;;;7.03;;
15476;SDS011;7840;42.702;23.296;2023-06-14T04:36:31;8.77;;;7.03;;
15476;SDS011;7840;42.702;23.296;2023-06-14T04:39:02;8.02;;;7.22;;
15476;SDS011;7840;42.702;23.296;2023-06-14T04:41:29;6.88;;;6.28;;
15476;SDS011;7840;42.702;23.296;2023-06-14T04:43:57;6.43;;;5.78;;
15476;SDS011;7840;42.702;23.296;2023-06-14T04:46:26;7.95;;;6.75;;
15476;SDS011;7840;42.702;23.296;2023-06-14T04:48:54;6.78;;;6.28;;
15476;SDS011;7840;42.702;23.296;2023-06-14T04:51:23;10.50;;;6.65;;
15476;SDS011;7840;42.702;23.296;2023-06-14T04:53:54;6.72;;;6.13;;
15476;SDS011;7840;42.702;23.296;2023-06-14T04:56:25;8.63;;;6.43;;
15476;SDS011;7840;42.702;23.296;2023-06-14T04:58:54;6.75;;;6.15;;
15476;SDS011;7840;42.702;23.296;2023-06-14T05:01:21;8.25;;;7.07;;
15476;SDS011;7840;42.702;23.296;2023-06-14T05:03:49;11.65;;;7.50;;
15476;SDS011;7840;42.702;23.296;2023-06-14T05:06:17;7.93;;;7.13;;
15476;SDS011;7840;42.702;23.296;2023-06-14T05:08:45;8.55;;;6.90;;
15476;SDS011;7840;42.702;23.296;2023-06-14T05:11:13;11.25;;;8.02;;
15476;SDS011;7840;42.702;23.296;2023-06-14T05:13:42;11.15;;;7.55;;
15476;SDS011;7840;42.702;23.296;2023-06-14T05:16:09;8.27;;;7.45;;
15476;SDS011;7840;42.702;23.296;2023-06-14T05:18:37;8.75;;;7.45;;
15476;SDS011;7840;42.702;23.296;2023-06-14T05:21:05;13.43;;;7.32;;
15476;SDS011;7840;42.702;23.296;2023-06-14T05:23:33;8.25;;;7.10;;
15476;SDS011;7840;42.702;23.296;2023-06-14T05:26:02;9.38;;;7.85;;
15476;SDS011;7840;42.702;23.296;2023-06-14T05:28:29;9.85;;;8.88;;
15476;SDS011;7840;42.702;23.296;2023-06-14T05:31:15;12.45;;;8.50;;
15476;SDS011;7840;42.702;23.296;2023-06-14T05:33:42;10.25;;;9.35;;
15476;SDS011;7840;42.702;23.296;2023-06-14T05:36:10;11.02;;;10.02;;
15476;SDS011;7840;42.702;23.296;2023-06-14T05:38:38;14.00;;;10.40;;
15476;SDS011;7840;42.702;23.296;2023-06-14T05:41:10;11.35;;;10.02;;
15476;SDS011;7840;42.702;23.296;2023-06-14T05:43:37;10.35;;;9.48;;
15476;SDS011;7840;42.702;23.296;2023-06-14T05:46:04;10.68;;;9.63;;
15476;SDS011;7840;42.702;23.296;2023-06-14T05:48:32;9.90;;;8.93;;
15476;SDS011;7840;42.702;23.296;2023-06-14T05:50:59;8.80;;;8.02;;
15476;SDS011;7840;42.702;23.296;2023-06-14T05:53:26;9.27;;;8.38;;
15476;SDS011;7840;42.702;23.296;2023-06-14T05:55:53;11.15;;;10.23;;
15476;SDS011;7840;42.702;23.296;2023-06-14T05:58:22;11.55;;;9.35;;
15476;SDS011;7840;42.702;23.296;2023-06-14T06:00:49;14.02;;;10.38;;
15476;SDS011;7840;42.702;23.296;2023-06-14T06:03:18;11.75;;;10.60;;
15476;SDS011;7840;42.702;23.296;2023-06-14T06:05:46;15.50;;;12.27;;
15476;SDS011;7840;42.702;23.296;2023-06-14T06:08:13;12.68;;;11.05;;
15476;SDS011;7840;42.702;23.296;2023-06-14T06:10:42;13.43;;;12.13;;
15476;SDS011;7840;42.702;23.296;2023-06-14T06:13:09;12.23;;;11.15;;
15476;SDS011;7840;42.702;23.296;2023-06-14T06:15:38;12.07;;;10.85;;
15476;SDS011;7840;42.702;23.296;2023-06-14T06:18:05;12.70;;;11.18;;
15476;SDS011;7840;42.702;23.296;2023-06-14T06:20:33;12.10;;;11.05;;
15476;SDS011;7840;42.702;23.296;2023-06-14T06:23:01;13.32;;;11.93;;
15476;SDS011;7840;42.702;23.296;2023-06-14T06:25:30;13.80;;;12.40;;
15476;SDS011;7840;42.702;23.296;2023-06-14T06:27:57;12.32;;;11.05;;
15476;SDS011;7840;42.702;23.296;2023-06-14T06:30:25;12.23;;;11.02;;
15476;SDS011;7840;42.702;23.296;2023-06-14T06:32:53;11.20;;;9.75;;
15476;SDS011;7840;42.702;23.296;2023-06-14T06:35:21;11.05;;;9.95;;
15476;SDS011;7840;42.702;23.296;2023-06-14T06:37:48;10.95;;;9.27;;
15476;SDS011;7840;42.702;23.296;2023-06-14T06:40:16;14.00;;;11.00;;
15476;SDS011;7840;42.702;23.296;2023-06-14T06:42:43;12.02;;;11.02;;
15476;SDS011;7840;42.702;23.296;2023-06-14T06:45:11;12.13;;;11.13;;
15476;SDS011;7840;42.702;23.296;2023-06-14T06:47:38;11.73;;;10.63;;
15476;SDS011;7840;42.702;23.296;2023-06-14T06:50:07;11.95;;;10.57;;
15476;SDS011;7840;42.702;23.296;2023-06-14T06:52:35;12.45;;;10.70;;
15476;SDS011;7840;42.702;23.296;2023-06-14T06:55:05;11.15;;;10.07;;
15476;SDS011;7840;42.702;23.296;2023-06-14T06:57:34;11.73;;;10.65;;
15476;SDS011;7840;42.702;23.296;2023-06-14T07:00:01;13.65;;;12.43;;
15476;SDS011;7840;42.702;23.296;2023-06-14T07:02:30;12.98;;;11.55;;
15476;SDS011;7840;42.702;23.296;2023-06-14T07:04:57;12.18;;;11.18;;
15476;SDS011;7840;42.702;23.296;2023-06-14T07:07:26;13.60;;;12.52;;
15476;SDS011;7840;42.702;23.296;2023-06-14T07:09:54;17.17;;;12.88;;
15476;SDS011;7840;42.702;23.296;2023-06-14T07:12:22;12.35;;;11.10;;
15476;SDS011;7840;42.702;23.296;2023-06-14T07:14:50;13.07;;;11.82;;
15476;SDS011;7840;42.702;23.296;2023-06-14T07:17:17;12.57;;;11.27;;
15476;SDS011;7840;42.702;23.296;2023-06-14T07:19:44;12.82;;;11.63;;
15476;SDS011;7840;42.702;23.296;2023-06-14T07:22:12;12.20;;;11.20;;
15476;SDS011;7840;42.702;23.296;2023-06-14T07:24:40;14.57;;;12.20;;
15476;SDS011;7840;42.702;23.296;2023-06-14T07:27:07;12.73;;;11.65;;
15476;SDS011;7840;42.702;23.296;2023-06-14T07:29:35;15.80;;;12.68;;
15476;SDS011;7840;42.702;23.296;2023-06-14T07:32:03;13.27;;;11.93;;
15476;SDS011;7840;42.702;23.296;2023-06-14T07:34:30;13.15;;;11.85;;
15476;SDS011;7840;42.702;23.296;2023-06-14T07:36:58;13.75;;;11.40;;
15476;SDS011;7840;42.702;23.296;2023-06-14T07:39:25;13.80;;;11.52;;
15476;SDS011;7840;42.702;23.296;2023-06-14T07:41:54;13.55;;;12.15;;
15476;SDS011;7840;42.702;23.296;2023-06-14T07:44:21;12.15;;;10.93;;
15476;SDS011;7840;42.702;23.296;2023-06-14T07:46:48;11.93;;;10.90;;
15476;SDS011;7840;42.702;23.296;2023-06-14T07:49:16;14.02;;;11.05;;
15476;SDS011;7840;42.702;23.296;2023-06-14T07:51:43;11.63;;;10.23;;
15476;SDS011;7840;42.702;23.296;2023-06-14T07:54:11;12.65;;;10.85;;
15476;SDS011;7840;42.702;23.296;2023-06-14T07:56:39;11.52;;;10.52;;
15476;SDS011;7840;42.702;23.296;2023-06-14T07:59:08;11.63;;;10.52;;
15476;SDS011;7840;42.702;23.296;2023-06-14T08:01:35;12.50;;;11.40;;
15476;SDS011;7840;42.702;23.296;2023-06-14T08:04:02;11.88;;;10.77;;
15476;SDS011;7840;42.702;23.296;2023-06-14T08:06:30;14.82;;;11.38;;
15476;SDS011;7840;42.702;23.296;2023-06-14T08:08:58;13.23;;;11.90;;
15476;SDS011;7840;42.702;23.296;2023-06-14T08:11:25;14.48;;;11.60;;
15476;SDS011;7840;42.702;23.296;2023-06-14T08:13:53;12.07;;;10.88;;
15476;SDS011;7840;42.702;23.296;2023-06-14T08:16:22;13.15;;;9.93;;
15476;SDS011;7840;42.702;23.296;2023-06-14T08:18:49;10.45;;;9.38;;
15476;SDS011;7840;42.702;23.296;2023-06-14T08:21:16;9.70;;;9.00;;
15476;SDS011;7840;42.702;23.296;2023-06-14T08:23:44;12.52;;;9.65;;
15476;SDS011;7840;42.702;23.296;2023-06-14T08:26:12;10.77;;;9.85;;
15476;SDS011;7840;42.702;23.296;2023-06-14T08:28:39;10.63;;;9.52;;
15476;SDS011;7840;42.702;23.296;2023-06-14T08:31:08;12.60;;;10.82;;
15476;SDS011;7840;42.702;23.296;2023-06-14T08:33:37;14.23;;;10.05;;
15476;SDS011;7840;42.702;23.296;2023-06-14T08:36:08;11.27;;;10.27;;
15476;SDS011;7840;42.702;23.296;2023-06-14T08:38:36;11.50;;;10.27;;
15476;SDS011;7840;42.702;23.296;2023-06-14T08:41:03;11.45;;;10.35;;
15476;SDS011;7840;42.702;23.296;2023-06-14T08:43:32;10.27;;;9.00;;
15476;SDS011;7840;42.702;23.296;2023-06-14T08:46:00;11.55;;;9.85;;
15476;SDS011;7840;42.702;23.296;2023-06-14T08:48:28;11.32;;;10.18;;
15476;SDS011;7840;42.702;23.296;2023-06-14T08:50:59;12.07;;;10.27;;
15476;SDS011;7840;42.702;23.296;2023-06-14T08:53:28;11.23;;;9.95;;
15476;SDS011;7840;42.702;23.296;2023-06-14T08:55:58;11.38;;;10.38;;
15476;SDS011;7840;42.702;23.296;2023-06-14T08:58:27;11.05;;;10.10;;
15476;SDS011;7840;42.702;23.296;2023-06-14T09:00:59;10.57;;;9.48;;
15476;SDS011;7840;42.702;23.296;2023-06-14T09:03:27;11.75;;;8.60;;
15476;SDS011;7840;42.702;23.296;2023-06-14T09:05:56;16.60;;;10.65;;
15476;SDS011;7840;42.702;23.296;2023-06-14T09:08:25;11.15;;;10.15;;
15476;SDS011;7840;42.702;23.296;2023-06-14T09:10:55;11.82;;;10.73;;
15476;SDS011;7840;42.702;23.296;2023-06-14T09:13:23;14.43;;;12.02;;
15476;SDS011;7840;42.702;23.296;2023-06-14T09:15:50;15.23;;;11.73;;
15476;SDS011;7840;42.702;23.296;2023-06-14T09:18:17;39.40;;;19.60;;
15476;SDS011;7840;42.702;23.296;2023-06-14T09:20:46;12.20;;;10.90;;
15476;SDS011;7840;42.702;23.296;2023-06-14T09:23:14;15.48;;;11.50;;
15476;SDS011;7840;42.702;23.296;2023-06-14T09:25:50;11.55;;;10.55;;
15476;SDS011;7840;42.702;23.296;2023-06-14T09:28:17;12.23;;;11.07;;
15476;SDS011;7840;42.702;23.296;2023-06-14T09:30:45;12.45;;;11.38;;
15476;SDS011;7840;42.702;23.296;2023-06-14T09:33:16;11.68;;;10.48;;
15476;SDS011;7840;42.702;23.296;2023-06-14T09:35:45;11.57;;;9.48;;
15476;SDS011;7840;42.702;23.296;2023-06-14T09:38:12;10.85;;;9.75;;
15476;SDS011;7840;42.702;23.296;2023-06-14T09:40:39;11.02;;;9.98;;
15476;SDS011;7840;42.702;23.296;2023-06-14T09:43:08;11.80;;;10.70;;
15476;SDS011;7840;42.702;23.296;2023-06-14T09:45:35;11.48;;;10.05;;
15476;SDS011;7840;42.702;23.296;2023-06-14T09:48:04;12.68;;;11.38;;
15476;SDS011;7840;42.702;23.296;2023-06-14T09:50:32;11.63;;;10.32;;
15476;SDS011;7840;42.702;23.296;2023-06-14T09:53:00;11.52;;;10.02;;
15476;SDS011;7840;42.702;23.296;2023-06-14T09:55:29;12.07;;;11.02;;
15476;SDS011;7840;42.702;23.296;2023-06-14T09:57:57;12.27;;;11.18;;
15476;SDS011;7840;42.702;23.296;2023-06-14T10:00:27;11.02;;;10.02;;
15476;SDS011;7840;42.702;23.296;2023-06-14T10:02:58;11.05;;;10.05;;
15476;SDS011;7840;42.702;23.296;2023-06-14T10:05:27;16.75;;;10.20;;
15476;SDS011;7840;42.702;23.296;2023-06-14T10:07:56;10.50;;;9.60;;
15476;SDS011;7840;42.702;23.296;2023-06-14T10:10:26;11.93;;;10.68;;
15476;SDS011;7840;42.702;23.296;2023-06-14T10:12:54;14.93;;;11.32;;
15476;SDS011;7840;42.702;23.296;2023-06-14T10:15:23;14.80;;;10.73;;
15476;SDS011;7840;42.702;23.296;2023-06-14T10:17:57;12.48;;;11.27;;
15476;SDS011;7840;42.702;23.296;2023-06-14T10:20:28;11.88;;;10.02;;
15476;SDS011;7840;42.702;23.296;2023-06-14T10:22:56;11.23;;;10.18;;
15476;SDS011;7840;42.702;23.296;2023-06-14T10:25:28;9.30;;;8.60;;
15476;SDS011;7840;42.702;23.296;2023-06-14T10:28:02;10.23;;;9.25;;
15476;SDS011;7840;42.702;23.296;2023-06-14T10:30:30;10.73;;;8.70;;
15476;SDS011;7840;42.702;23.296;2023-06-14T10:33:05;10.57;;;9.63;;
15476;SDS011;7840;42.702;23.296;2023-06-14T10:35:34;9.18;;;8.30;;
15476;SDS011;7840;42.702;23.296;2023-06-14T10:38:08;10.35;;;9.30;;
15476;SDS011;7840;42.702;23.296;2023-06-14T10:40:36;13.15;;;9.40;;
15476;SDS011;7840;42.702;23.296;2023-06-14T10:48:41;11.23;;;9.30;;
15476;SDS011;7840;42.702;23.296;2023-06-14T10:51:15;10.18;;;9.27;;
15476;SDS011;7840;42.702;23.296;2023-06-14T10:53:45;9.82;;;8.95;;
15476;SDS011;7840;42.702;23.296;2023-06-14T10:56:23;10.05;;;8.98;;
15476;SDS011;7840;42.702;23.296;2023-06-14T10:58:51;10.52;;;9.35;;
15476;SDS011;7840;42.702;23.296;2023-06-14T11:01:19;10.45;;;9.43;;
15476;SDS011;7840;42.702;23.296;2023-06-14T11:03:52;9.85;;;9.05;;
15476;SDS011;7840;42.702;23.296;2023-06-14T11:06:21;14.45;;;10.40;;
15476;SDS011;7840;42.702;23.296;2023-06-14T11:09:00;11.20;;;9.23;;
15476;SDS011;7840;42.702;23.296;2023-06-14T11:11:33;10.57;;;9.57;;
15476;SDS011;7840;42.702;23.296;2023-06-14T11:14:00;11.65;;;9.82;;
15476;SDS011;7840;42.702;23.296;2023-06-14T11:16:28;10.35;;;9.38;;
15476;SDS011;7840;42.702;23.296;2023-06-14T11:18:59;10.68;;;9.77;;
15476;SDS011;7840;42.702;23.296;2023-06-14T11:21:28;11.10;;;10.13;;
15476;SDS011;7840;42.702;23.296;2023-06-14T11:23:58;9.27;;;8.45;;
15476;SDS011;7840;42.702;23.296;2023-06-14T11:26:26;12.30;;;9.35;;
15476;SDS011;7840;42.702;23.296;2023-06-14T11:28:57;9.38;;;8.68;;
15476;SDS011;7840;42.702;23.296;2023-06-14T11:31:24;9.70;;;7.97;;
15476;SDS011;7840;42.702;23.296;2023-06-14T11:33:53;9.20;;;8.30;;
15476;SDS011;7840;42.702;23.296;2023-06-14T11:36:22;8.15;;;7.45;;
15476;SDS011;7840;42.702;23.296;2023-06-14T11:38:49;9.40;;;8.60;;
15476;SDS011;7840;42.702;23.296;2023-06-14T11:41:17;10.18;;;9.05;;
15476;SDS011;7840;42.702;23.296;2023-06-14T11:43:44;10.50;;;9.35;;
15476;SDS011;7840;42.702;23.296;2023-06-14T11:46:15;10.00;;;9.10;;
15476;SDS011;7840;42.702;23.296;2023-06-14T11:48:47;9.07;;;8.25;;
15476;SDS011;7840;42.702;23.296;2023-06-14T11:51:14;9.07;;;7.68;;
15476;SDS011;7840;42.702;23.296;2023-06-14T11:53:43;7.82;;;7.05;;
15476;SDS011;7840;42.702;23.296;2023-06-14T11:56:11;10.30;;;7.63;;
15476;SDS011;7840;42.702;23.296;2023-06-14T11:58:38;11.13;;;7.07;;
15476;SDS011;7840;42.702;23.296;2023-06-14T12:01:06;8.65;;;7.72;;
15476;SDS011;7840;42.702;23.296;2023-06-14T12:03:33;8.85;;;7.57;;
15476;SDS011;7840;42.702;23.296;2023-06-14T12:06:04;8.73;;;7.93;;
15476;SDS011;7840;42.702;23.296;2023-06-14T12:08:33;8.57;;;7.97;;
15476;SDS011;7840;42.702;23.296;2023-06-14T12:11:11;9.70;;;7.72;;
15476;SDS011;7840;42.702;23.296;2023-06-14T12:13:40;8.93;;;6.85;;
15476;SDS011;7840;42.702;23.296;2023-06-14T12:16:07;9.00;;;8.25;;
15476;SDS011;7840;42.702;23.296;2023-06-14T12:18:35;7.82;;;7.03;;
15476;SDS011;7840;42.702;23.296;2023-06-14T12:21:03;7.88;;;7.10;;
15476;SDS011;7840;42.702;23.296;2023-06-14T12:23:44;7.53;;;6.93;;
15476;SDS011;7840;42.702;23.296;2023-06-14T12:26:14;7.32;;;6.68;;
15476;SDS011;7840;42.702;23.296;2023-06-14T12:28:42;7.28;;;6.68;;
15476;SDS011;7840;42.702;23.296;2023-06-14T12:31:10;6.45;;;5.95;;
15476;SDS011;7840;42.702;23.296;2023-06-14T12:33:38;6.95;;;6.35;;
15476;SDS011;7840;42.702;23.296;2023-06-14T12:36:06;6.88;;;6.38;;
15476;SDS011;7840;42.702;23.296;2023-06-14T12:38:34;6.53;;;5.93;;
15476;SDS011;7840;42.702;23.296;2023-06-14T12:41:01;7.25;;;6.50;;
15476;SDS011;7840;42.702;23.296;2023-06-14T12:43:30;9.75;;;6.43;;
15476;SDS011;7840;42.702;23.296;2023-06-14T12:45:57;7.15;;;6.63;;
15476;SDS011;7840;42.702;23.296;2023-06-14T12:48:24;7.22;;;6.55;;
15476;SDS011;7840;42.702;23.296;2023-06-14T12:50:52;7.35;;;6.63;;
15476;SDS011;7840;42.702;23.296;2023-06-14T12:53:20;8.43;;;6.55;;
15476;SDS011;7840;42.702;23.296;2023-06-14T12:55:48;8.65;;;6.10;;
15476;SDS011;7840;42.702;23.296;2023-06-14T12:58:15;6.78;;;6.00;;
15476;SDS011;7840;42.702;23.296;2023-06-14T13:00:46;6.47;;;5.97;;
15476;SDS011;7840;42.702;23.296;2023-06-14T13:03:13;6.85;;;5.65;;
15476;SDS011;7840;42.702;23.296;2023-06-14T13:05:40;9.32;;;6.15;;
15476;SDS011;7840;42.702;23.296;2023-06-14T13:08:08;8.35;;;6.00;;
15476;SDS011;7840;42.702;23.296;2023-06-14T13:10:35;8.45;;;6.25;;
15476;SDS011;7840;42.702;23.296;2023-06-14T13:13:07;5.93;;;5.32;;
15476;SDS011;7840;42.702;23.296;2023-06-14T13:15:34;6.70;;;6.10;;
15476;SDS011;7840;42.702;23.296;2023-06-14T13:18:03;8.20;;;5.80;;
15476;SDS011;7840;42.702;23.296;2023-06-14T13:20:31;6.28;;;5.60;;
15476;SDS011;7840;42.702;23.296;2023-06-14T13:22:58;5.53;;;5.13;;
15476;SDS011;7840;42.702;23.296;2023-06-14T13:25:27;8.73;;;5.82;;
15476;SDS011;7840;42.702;23.296;2023-06-14T13:27:54;10.93;;;6.70;;
15476;SDS011;7840;42.702;23.296;2023-06-14T13:30:21;7.28;;;6.55;;
15476;SDS011;7840;42.702;23.296;2023-06-14T13:32:49;6.63;;;6.00;;
15476;SDS011;7840;42.702;23.296;2023-06-14T13:35:18;7.38;;;5.80;;
15476;SDS011;7840;42.702;23.296;2023-06-14T13:37:46;6.82;;;6.18;;
15476;SDS011;7840;42.702;23.296;2023-06-14T13:40:13;6.15;;;5.65;;
15476;SDS011;7840;42.702;23.296;2023-06-14T13:42:40;6.68;;;5.78;;
15476;SDS011;7840;42.702;23.296;2023-06-14T13:45:08;6.80;;;6.00;;
15476;SDS011;7840;42.702;23.296;2023-06-14T13:47:35;6.78;;;6.28;;
15476;SDS011;7840;42.702;23.296;2023-06-14T13:50:03;7.15;;;6.55;;
15476;SDS011;7840;42.702;23.296;2023-06-14T13:52:32;9.45;;;6.88;;
15476;SDS011;7840;42.702;23.296;2023-06-14T13:54:59;8.77;;;7.93;;
15476;SDS011;7840;42.702;23.296;2023-06-14T13:57:27;9.90;;;7.90;;
15476;SDS011;7840;42.702;23.296;2023-06-14T13:59:54;7.75;;;6.95;;
15476;SDS011;7840;42.702;23.296;2023-06-14T14:02:26;7.20;;;6.60;;
15476;SDS011;7840;42.702;23.296;2023-06-14T14:04:53;8.07;;;7.38;;
15476;SDS011;7840;42.702;23.296;2023-06-14T14:07:21;8.27;;;7.57;;
15476;SDS011;7840;42.702;23.296;2023-06-14T14:09:50;8.00;;;7.20;;
15476;SDS011;7840;42.702;23.296;2023-06-14T14:12:18;7.25;;;6.65;;
15476;SDS011;7840;42.702;23.296;2023-06-14T14:14:45;7.90;;;7.18;;
15476;SDS011;7840;42.702;23.296;2023-06-14T14:17:13;7.95;;;7.15;;
15476;SDS011;7840;42.702;23.296;2023-06-14T14:19:40;10.80;;;7.60;;
15476;SDS011;7840;42.702;23.296;2023-06-14T14:22:07;8.27;;;7.47;;
15476;SDS011;7840;42.702;23.296;2023-06-14T14:24:35;9.27;;;6.20;;
15476;SDS011;7840;42.702;23.296;2023-06-14T14:27:04;7.70;;;7.10;;
15476;SDS011;7840;42.702;23.296;2023-06-14T14:29:31;6.70;;;6.07;;
15476;SDS011;7840;42.702;23.296;2023-06-14T14:31:59;7.05;;;6.50;;
15476;SDS011;7840;42.702;23.296;2023-06-14T14:34:26;7.55;;;6.55;;
15476;SDS011;7840;42.702;23.296;2023-06-14T14:36:53;7.20;;;6.60;;
15476;SDS011;7840;42.702;23.296;2023-06-14T14:39:21;7.75;;;6.55;;
15476;SDS011;7840;42.702;23.296;2023-06-14T14:41:48;11.57;;;7.35;;
15476;SDS011;7840;42.702;23.296;2023-06-14T14:44:18;8.38;;;7.45;;
15476;SDS011;7840;42.702;23.296;2023-06-14T14:46:45;9.90;;;7.60;;
15476;SDS011;7840;42.702;23.296;2023-06-14T14:49:13;9.30;;;7.22;;
15476;SDS011;7840;42.702;23.296;2023-06-14T14:51:40;6.95;;;6.35;;